Terminal Aerodrome Forecast
Issued by NWS Sterling, VA

Current Version | Previous Version | Text Only | Print | Product List | Glossary Off
Versions: 1 2 3 4 5 6 7 8 9 10 11 12 13 14 15 16 17 18 19 20 21 22 23 24 25 26 27 28 29 30 31

000
FTUS41 KLWX 031133
TAFDCA
TAF
KDCA 031133Z 0312/0412 00000KT 2SM BR BKN150
     FM031300 VRB03KT 6SM BR BKN140
     FM032100 15008KT P6SM OVC050
     FM040400 12006KT 6SM -SHRA OVC020
     FM040800 09006KT 6SM -SHRA OVC010
     FM041000 10006KT P6SM OVC008=

USA.gov is the U.S. government's official web portal to all federal, state and local government web resources and services.